Time;durP1;ratioP1;P1;durP2;ratioP2;P2;SDS_P1;SDS_P2;PMS_P1;PMS_P2;Temp;Humidity;BMP_temperature;BMP_pressure;BME280_temperature;BME280_humidity;BME280_pressure;Samples;Min_cycle;Max_cycle;Signal;HPM_P1;HPM_P2
2022/03/30 00:02:16;;;;;;;63.28;27.25;;;;;;;7.26;93.04;98296.00;4969521;28;20105;-51
2022/03/30 00:04:42;;;;;;;73.88;29.15;;;;;;;7.21;94.44;98297.75;4970738;28;20478;-53
2022/03/30 00:07:07;;;;;;;60.40;27.67;;;;;;;7.22;93.27;98289.53;4966345;28;20381;-52
2022/03/30 00:09:33;;;;;;;61.65;28.63;;;;;;;7.21;93.77;98300.41;4962518;28;20043;-53
2022/03/30 00:11:59;;;;;;;61.92;26.95;;;;;;;7.16;93.53;98289.69;4958331;28;20039;-51
2022/03/30 00:14:24;;;;;;;61.75;27.73;;;;;;;7.28;94.05;98291.19;4962600;28;20447;-53
2022/03/30 00:16:51;;;;;;;66.57;29.42;;;;;;;7.18;94.66;98293.72;4966320;28;20031;-53
2022/03/30 00:19:17;;;;;;;63.65;28.00;;;;;;;7.34;94.93;98297.44;4966118;28;20039;-51
2022/03/30 00:21:42;;;;;;;68.57;28.48;;;;;;;7.35;95.72;98289.19;4964458;28;20069;-51
2022/03/30 00:24:08;;;;;;;66.28;26.88;;;;;;;7.34;96.03;98286.78;4965215;28;20077;-50
2022/03/30 00:26:33;;;;;;;65.70;29.00;;;;;;;7.35;96.42;98286.50;4960119;28;20030;-53
2022/03/30 00:28:59;;;;;;;77.20;31.05;;;;;;;7.41;97.95;98283.91;4964950;28;20474;-53
2022/03/30 00:31:24;;;;;;;65.22;28.33;;;;;;;7.44;97.31;98281.59;4968103;28;20807;-50
2022/03/30 00:33:51;;;;;;;75.68;27.52;;;;;;;7.40;96.40;98279.66;4970287;28;20023;-53
2022/03/30 00:36:17;;;;;;;62.55;29.10;;;;;;;7.17;94.82;98280.66;4964230;28;20046;-50
2022/03/30 00:38:42;;;;;;;66.38;29.52;;;;;;;7.19;93.95;98281.19;4968239;28;20035;-50
2022/03/30 00:41:08;;;;;;;67.25;30.55;;;;;;;7.19;94.27;98282.03;4960291;28;20039;-51
2022/03/30 00:43:34;;;;;;;70.63;32.05;;;;;;;7.24;95.39;98275.94;4967454;28;20397;-52
2022/03/30 00:45:59;;;;;;;69.18;30.92;;;;;;;7.29;96.23;98281.38;4958870;28;20038;-51
2022/03/30 00:48:25;;;;;;;70.07;32.25;;;;;;;7.32;97.26;98278.22;4962782;28;20190;-53
2022/03/30 00:50:50;;;;;;;76.05;31.35;;;;;;;7.36;98.13;98279.31;4964770;28;20031;-51
2022/03/30 00:53:16;;;;;;;76.78;31.77;;;;;;;7.33;98.30;98275.28;4969514;28;20042;-53
2022/03/30 00:55:42;;;;;;;64.80;30.08;;;;;;;7.29;98.56;98271.50;4964566;28;20386;-51
2022/03/30 00:58:07;;;;;;;71.93;31.30;;;;;;;7.35;99.15;98275.03;4965638;28;20077;-53
2022/03/30 01:00:33;;;;;;;76.13;33.35;;;;;;;7.33;99.56;98269.16;4965818;28;20038;-52
2022/03/30 01:02:58;;;;;;;66.60;30.67;;;;;;;7.35;99.37;98267.84;4967491;28;20470;-53
2022/03/30 01:05:24;;;;;;;68.55;31.55;;;;;;;7.34;99.24;98265.44;4956970;28;20548;-50
2022/03/30 01:07:49;;;;;;;65.18;29.85;;;;;;;7.36;99.54;98258.00;4963900;28;20037;-53
2022/03/30 01:10:16;;;;;;;76.43;32.95;;;;;;;7.28;99.10;98253.09;4965575;28;20023;-53
2022/03/30 01:12:41;;;;;;;71.68;30.95;;;;;;;7.19;97.60;98249.22;4965775;28;20102;-51
2022/03/30 01:15:12;;;;;;;75.93;31.23;;;;;;;7.11;96.61;98245.94;4968155;28;20054;-53
2022/03/30 01:17:37;;;;;;;79.72;29.83;;;;;;;7.03;96.82;98245.50;4962042;28;20019;-51
2022/03/30 01:20:06;;;;;;;71.63;31.17;;;;;;;7.05;97.75;98243.41;4963511;28;20042;-52
2022/03/30 01:22:33;;;;;;;68.70;31.58;;;;;;;7.15;98.89;98240.91;4968509;28;20433;-54
2022/03/30 01:24:59;;;;;;;73.32;31.67;;;;;;;7.20;99.31;98248.19;4969003;28;20034;-51
2022/03/30 01:27:24;;;;;;;80.50;32.47;;;;;;;7.18;98.81;98239.59;4967920;28;20382;-52
2022/03/30 01:32:36;;;;;;;67.93;30.00;;;;;;;7.21;98.73;98233.78;4965976;28;20157;-53
2022/03/30 01:35:03;;;;;;;70.70;32.83;;;;;;;7.18;98.83;98240.41;4964790;28;20073;-52
2022/03/30 01:37:28;;;;;;;76.15;31.10;;;;;;;7.13;99.51;98235.81;4955990;28;20417;-53
2022/03/30 01:39:56;;;;;;;71.20;31.83;;;;;;;7.09;97.97;98228.56;4960585;28;20393;-56
2022/03/30 01:42:21;;;;;;;74.50;31.38;;;;;;;7.04;98.96;98226.63;4960677;28;20145;-52
2022/03/30 01:44:47;;;;;;;87.63;34.38;;;;;;;7.09;100.00;98221.38;4962858;28;20030;-52
2022/03/30 01:47:13;;;;;;;79.18;35.30;;;;;;;7.15;100.00;98224.13;4958257;28;20556;-53
2022/03/30 01:49:38;;;;;;;70.85;30.45;;;;;;;7.21;99.89;98217.78;4968606;28;20046;-53
2022/03/30 01:52:04;;;;;;;76.88;33.05;;;;;;;7.28;99.12;98218.44;4965414;28;20126;-54
2022/03/30 01:54:34;;;;;;;80.82;32.22;;;;;;;7.20;98.67;98214.34;4959783;28;20031;-53
2022/03/30 01:56:59;;;;;;;74.43;30.48;;;;;;;7.35;100.00;98208.41;4955964;28;20031;-53
2022/03/30 01:59:25;;;;;;;80.93;32.58;;;;;;;7.10;98.21;98209.66;4960625;28;20122;-53
2022/03/30 02:01:52;;;;;;;94.97;36.10;;;;;;;7.00;98.12;98206.03;4960899;28;20041;-53
2022/03/30 02:04:17;;;;;;;81.15;33.67;;;;;;;7.03;99.15;98206.34;4960747;28;20029;-54
2022/03/30 02:06:43;;;;;;;77.35;33.60;;;;;;;7.12;99.79;98198.75;4962912;28;20470;-52
2022/03/30 02:09:08;;;;;;;85.97;32.33;;;;;;;7.21;100.00;98197.28;4967591;28;20496;-53
2022/03/30 02:11:34;;;;;;;76.28;32.72;;;;;;;7.13;99.43;98195.84;4952057;28;20035;-55
2022/03/30 02:14:00;;;;;;;77.78;33.00;;;;;;;6.96;98.79;98194.25;4943092;28;20118;-51
2022/03/30 02:16:25;;;;;;;83.50;34.33;;;;;;;6.84;99.23;98184.50;4965978;28;20433;-54
2022/03/30 02:18:51;;;;;;;88.07;34.42;;;;;;;6.86;99.08;98184.25;4968498;28;20065;-51
2022/03/30 02:21:16;;;;;;;76.68;33.92;;;;;;;6.78;99.61;98187.34;4960246;28;20382;-51
2022/03/30 02:23:45;;;;;;;85.13;34.95;;;;;;;6.73;100.00;98181.94;4959283;28;20142;-53
2022/03/30 02:26:11;;;;;;;91.25;39.05;;;;;;;6.69;100.00;98184.28;4954189;28;20039;-53
2022/03/30 02:28:36;;;;;;;94.18;34.67;;;;;;;6.64;100.00;98181.50;4965743;28;20031;-52
2022/03/30 02:31:02;;;;;;;94.60;35.58;;;;;;;6.57;100.00;98179.03;4967064;28;20401;-53
2022/03/30 02:33:27;;;;;;;88.38;35.83;;;;;;;6.59;100.00;98173.44;4963814;28;20031;-52
2022/03/30 02:35:53;;;;;;;97.53;38.10;;;;;;;6.72;100.00;98167.00;4960640;28;20067;-51
2022/03/30 02:38:18;;;;;;;93.00;37.13;;;;;;;6.68;100.00;98167.47;4964046;28;20037;-51
2022/03/30 02:40:43;;;;;;;97.47;37.55;;;;;;;6.72;100.00;98161.69;4957918;28;20445;-51
2022/03/30 02:43:10;;;;;;;97.40;38.33;;;;;;;6.65;100.00;98162.63;4957132;28;20034;-51
2022/03/30 02:45:35;;;;;;;99.72;37.60;;;;;;;6.73;100.00;98157.97;4961451;28;20093;-52
2022/03/30 02:48:19;;;;;;;98.55;37.30;;;;;;;6.74;100.00;98167.56;4967457;28;20046;-51
2022/03/30 02:50:52;;;;;;;100.13;37.85;;;;;;;6.80;100.00;98161.28;4958345;28;20134;-53
2022/03/30 02:53:17;;;;;;;107.70;37.72;;;;;;;6.75;100.00;98161.19;4979938;28;20400;-54
2022/03/30 02:55:43;;;;;;;94.95;36.78;;;;;;;6.74;100.00;98154.22;4964316;28;20031;-53
2022/03/30 02:58:09;;;;;;;97.03;38.80;;;;;;;6.71;100.00;98150.19;4961711;28;20086;-51
2022/03/30 03:00:35;;;;;;;98.05;38.72;;;;;;;6.69;100.00;98153.13;4960896;28;20035;-51
2022/03/30 03:03:01;;;;;;;108.05;41.15;;;;;;;6.65;100.00;98146.66;4967096;28;20061;-53
2022/03/30 03:05:32;;;;;;;102.80;40.35;;;;;;;6.63;100.00;98147.97;4964957;28;20015;-52
2022/03/30 03:08:00;;;;;;;110.38;40.13;;;;;;;6.66;100.00;98142.13;4967211;28;20054;-51
2022/03/30 03:10:26;;;;;;;106.50;39.38;;;;;;;6.69;100.00;98147.00;4961429;28;20530;-53
2022/03/30 03:12:52;;;;;;;104.07;38.50;;;;;;;6.65;100.00;98141.34;4958243;28;20034;-53
2022/03/30 03:15:18;;;;;;;116.18;38.05;;;;;;;6.72;100.00;98140.38;4956634;28;20496;-54
2022/03/30 03:17:43;;;;;;;103.07;38.70;;;;;;;6.66;100.00;98139.47;4960255;28;20035;-51
2022/03/30 03:20:11;;;;;;;119.18;40.95;;;;;;;6.58;100.00;98134.56;4969527;28;20022;-53
2022/03/30 03:22:36;;;;;;;113.07;39.63;;;;;;;6.48;100.00;98135.22;4969808;28;20077;-52
2022/03/30 03:25:02;;;;;;;114.38;40.42;;;;;;;6.43;100.00;98135.13;4959204;28;20084;-52
2022/03/30 03:27:28;;;;;;;113.22;39.58;;;;;;;6.37;100.00;98128.94;4965893;28;20026;-53
2022/03/30 03:29:54;;;;;;;122.30;40.70;;;;;;;6.43;100.00;98127.94;4967209;28;20425;-55
2022/03/30 03:32:20;;;;;;;116.43;39.28;;;;;;;6.49;100.00;98128.88;4958284;28;20042;-50
2022/03/30 03:34:45;;;;;;;119.40;39.15;;;;;;;6.51;100.00;98124.06;4967759;28;20031;-50
2022/03/30 03:37:11;;;;;;;110.55;39.03;;;;;;;6.50;100.00;98122.47;4969922;28;20035;-53
2022/03/30 03:39:36;;;;;;;118.93;41.58;;;;;;;6.45;100.00;98127.72;4963973;28;20511;-52
2022/03/30 03:42:02;;;;;;;120.45;39.72;;;;;;;6.47;100.00;98128.28;4965335;28;20573;-50
2022/03/30 03:44:27;;;;;;;114.03;38.78;;;;;;;6.52;100.00;98125.72;4959690;28;20371;-52
2022/03/30 03:46:54;;;;;;;110.97;38.40;;;;;;;6.40;100.00;98130.31;4967537;28;20027;-54
2022/03/30 03:49:20;;;;;;;111.97;38.47;;;;;;;6.31;100.00;98121.09;4970681;28;20038;-52
2022/03/30 03:51:45;;;;;;;115.55;38.67;;;;;;;6.10;100.00;98119.97;4963213;28;20027;-51
2022/03/30 03:54:11;;;;;;;117.40;39.72;;;;;;;6.22;100.00;98126.81;4969039;28;20039;-51
2022/03/30 03:56:36;;;;;;;118.00;38.72;;;;;;;6.21;100.00;98122.53;4961461;28;20031;-53
2022/03/30 03:59:02;;;;;;;119.82;39.42;;;;;;;6.16;100.00;98117.13;4964504;28;20030;-52
2022/03/30 04:01:29;;;;;;;122.05;42.50;;;;;;;6.12;100.00;98121.34;4967317;28;20038;-52
2022/03/30 04:03:55;;;;;;;112.75;38.42;;;;;;;6.24;100.00;98113.25;4959972;28;20031;-50
2022/03/30 04:06:21;;;;;;;113.80;37.65;;;;;;;6.36;100.00;98129.16;4964090;28;20027;-51
2022/03/30 04:08:48;;;;;;;130.88;41.47;;;;;;;6.36;100.00;98108.69;4959304;28;20128;-51
2022/03/30 04:11:13;;;;;;;118.15;37.60;;;;;;;6.43;100.00;98111.19;4956565;28;20478;-50
2022/03/30 04:13:39;;;;;;;118.00;40.15;;;;;;;6.43;100.00;98111.19;4962534;28;20096;-53
2022/03/30 04:16:05;;;;;;;123.47;41.25;;;;;;;6.23;100.00;98114.31;4967582;28;20027;-51
2022/03/30 04:18:30;;;;;;;122.00;40.17;;;;;;;6.16;100.00;98111.81;4965425;28;20028;-52
2022/03/30 04:20:56;;;;;;;134.40;43.20;;;;;;;6.16;100.00;98108.34;4967271;28;20047;-49
2022/03/30 04:23:21;;;;;;;125.22;41.92;;;;;;;6.21;100.00;98109.22;4959621;28;20456;-52
2022/03/30 04:25:47;;;;;;;122.68;42.75;;;;;;;6.19;100.00;98106.03;4963562;28;20062;-53
2022/03/30 04:28:15;;;;;;;128.68;41.63;;;;;;;6.16;100.00;98109.16;4968934;28;20027;-55
2022/03/30 04:30:40;;;;;;;129.38;41.72;;;;;;;6.10;100.00;98101.34;4968756;28;20042;-52
2022/03/30 04:33:06;;;;;;;145.45;42.70;;;;;;;6.10;100.00;98112.78;4947723;28;20031;-52
2022/03/30 04:35:31;;;;;;;122.45;40.75;;;;;;;6.14;100.00;98113.94;4965406;28;20068;-58
2022/03/30 04:37:57;;;;;;;130.43;40.70;;;;;;;6.03;100.00;98106.81;4970300;28;20045;-54
2022/03/30 04:40:23;;;;;;;126.40;41.92;;;;;;;6.13;100.00;98106.97;4968785;28;20037;-54
2022/03/30 04:42:51;;;;;;;131.55;42.22;;;;;;;6.08;100.00;98106.91;4962979;28;20037;-52
2022/03/30 04:45:17;;;;;;;130.25;40.75;;;;;;;6.02;100.00;98105.22;4960165;28;20022;-50
2022/03/30 04:47:43;;;;;;;156.10;43.28;;;;;;;5.92;100.00;98107.66;4962746;28;20045;-52
2022/03/30 04:50:09;;;;;;;143.52;43.35;;;;;;;5.91;100.00;98106.03;4961303;28;20026;-54
2022/03/30 04:52:38;;;;;;;146.40;44.05;;;;;;;5.93;100.00;98101.28;4968292;28;20496;-53
2022/03/30 04:55:05;;;;;;;147.80;43.80;;;;;;;5.94;100.00;98102.91;4968278;28;20023;-53
2022/03/30 04:57:30;;;;;;;140.32;43.63;;;;;;;5.94;100.00;98102.91;4957103;28;20046;-54
2022/03/30 04:59:56;;;;;;;150.13;43.47;;;;;;;5.94;100.00;98097.59;4964444;28;20490;-53
2022/03/30 05:02:22;;;;;;;123.90;40.85;;;;;;;6.05;100.00;98104.72;4969974;28;20046;-53
2022/03/30 05:04:47;;;;;;;134.15;44.72;;;;;;;5.81;100.00;98104.81;4968760;28;20037;-53
2022/03/30 05:07:14;;;;;;;143.75;43.03;;;;;;;5.81;100.00;98099.47;4963195;28;20473;-53
2022/03/30 05:09:39;;;;;;;142.20;42.78;;;;;;;5.78;100.00;98093.84;4958802;28;20110;-53
2022/03/30 05:12:05;;;;;;;143.57;44.58;;;;;;;5.92;100.00;98100.50;4954101;28;20425;-52
2022/03/30 05:14:32;;;;;;;142.98;42.33;;;;;;;5.99;100.00;98097.69;4968501;28;20842;-54
2022/03/30 05:16:58;;;;;;;148.10;44.80;;;;;;;6.02;100.00;98097.22;4968201;28;20041;-52
2022/03/30 05:19:24;;;;;;;136.23;43.38;;;;;;;6.05;100.00;98088.75;4968961;28;20070;-52
2022/03/30 05:21:49;;;;;;;143.18;43.75;;;;;;;5.84;100.00;98092.88;4963932;28;20058;-53
2022/03/30 05:24:14;;;;;;;143.90;42.30;;;;;;;5.76;100.00;98095.94;4966331;28;20034;-54
2022/03/30 05:26:40;;;;;;;138.75;44.30;;;;;;;5.84;100.00;98088.38;4955280;28;20437;-53
2022/03/30 05:29:05;;;;;;;142.15;43.08;;;;;;;5.88;100.00;98093.22;4965595;28;20027;-54
2022/03/30 05:31:31;;;;;;;132.90;44.35;;;;;;;5.73;100.00;98091.91;4967275;28;20561;-53
2022/03/30 05:33:57;;;;;;;139.93;45.65;;;;;;;5.71;100.00;98093.19;4966903;28;20039;-54
2022/03/30 05:36:22;;;;;;;144.40;44.42;;;;;;;6.04;100.00;98087.13;4961832;28;20217;-50
2022/03/30 05:38:50;;;;;;;156.40;45.75;;;;;;;6.13;100.00;98090.22;4958578;28;20437;-53
2022/03/30 05:41:16;;;;;;;130.70;42.50;;;;;;;6.09;100.00;98095.22;4952839;28;20405;-52
2022/03/30 05:43:42;;;;;;;133.98;42.75;;;;;;;6.25;100.00;98086.44;4948728;28;20036;-50
2022/03/30 05:46:08;;;;;;;141.00;43.78;;;;;;;5.96;100.00;98095.50;4964462;28;20037;-51
2022/03/30 05:48:33;;;;;;;132.20;42.55;;;;;;;5.93;100.00;98091.44;4967531;28;20030;-49
2022/03/30 05:50:59;;;;;;;130.43;42.95;;;;;;;6.05;100.00;98092.22;4963337;28;20035;-52
2022/03/30 05:53:24;;;;;;;137.07;42.85;;;;;;;5.95;100.00;98100.03;4963769;28;20026;-54
2022/03/30 05:55:50;;;;;;;135.45;42.10;;;;;;;5.88;100.00;98098.53;4963111;28;20031;-52
2022/03/30 05:58:15;;;;;;;135.52;43.75;;;;;;;5.86;100.00;98097.97;4963961;28;20030;-53
2022/03/30 06:00:41;;;;;;;134.05;40.75;;;;;;;5.76;100.00;98091.41;4967854;28;20035;-51
2022/03/30 06:03:07;;;;;;;140.52;44.70;;;;;;;5.86;100.00;98090.78;4965485;28;20038;-52
2022/03/30 06:05:33;;;;;;;150.80;44.22;;;;;;;5.90;100.00;98085.81;4965241;28;20663;-50
2022/03/30 06:08:05;;;;;;;144.00;47.22;;;;;;;5.91;100.00;98087.41;4959456;28;20038;-51
2022/03/30 06:10:30;;;;;;;158.55;45.92;;;;;;;6.07;100.00;98092.00;4966058;28;20035;-50
2022/03/30 06:12:56;;;;;;;138.30;44.42;;;;;;;6.05;100.00;98089.56;4960507;28;20075;-55
2022/03/30 06:15:22;;;;;;;139.70;42.85;;;;;;;6.08;100.00;98088.28;4960734;28;20031;-51
2022/03/30 06:17:48;;;;;;;142.60;43.70;;;;;;;5.96;100.00;98096.31;4964119;28;20121;-52
2022/03/30 06:20:13;;;;;;;137.75;42.20;;;;;;;6.02;100.00;98089.25;4964487;28;20077;-53
2022/03/30 06:22:41;;;;;;;132.10;42.42;;;;;;;6.33;100.00;98097.72;4955363;28;20047;-53
2022/03/30 06:25:09;;;;;;;137.30;44.10;;;;;;;6.42;100.00;98098.94;4966743;28;20049;-52
2022/03/30 06:27:38;;;;;;;129.90;40.42;;;;;;;6.41;100.00;98113.28;4961990;28;20093;-53
2022/03/30 06:30:05;;;;;;;134.68;43.53;;;;;;;6.31;99.92;98105.94;4965324;28;20054;-53
2022/03/30 06:32:30;;;;;;;127.10;42.47;;;;;;;6.31;100.00;98102.47;4960105;28;20027;-52
2022/03/30 06:34:56;;;;;;;132.40;44.20;;;;;;;6.30;100.00;98111.50;4957465;28;20553;-53
2022/03/30 06:37:21;;;;;;;133.05;43.03;;;;;;;6.36;100.00;98116.66;4967243;28;20027;-54
2022/03/30 06:39:46;;;;;;;124.78;42.65;;;;;;;6.26;100.00;98108.50;4957983;28;20042;-54
2022/03/30 06:42:12;;;;;;;135.95;43.28;;;;;;;5.91;99.85;98108.69;4965438;28;20038;-54
2022/03/30 06:44:38;;;;;;;127.72;41.38;;;;;;;5.92;100.00;98102.34;4952254;28;20034;-54
2022/03/30 06:47:03;;;;;;;127.88;42.88;;;;;;;5.93;100.00;98102.09;4966014;28;20485;-51
2022/03/30 06:49:29;;;;;;;132.45;42.38;;;;;;;6.10;100.00;98106.66;4965973;28;20041;-54
2022/03/30 06:51:54;;;;;;;126.85;42.75;;;;;;;5.98;100.00;98106.72;4961973;28;20042;-50
2022/03/30 06:54:20;;;;;;;128.88;45.08;;;;;;;5.93;100.00;98111.94;4961780;28;20186;-51
2022/03/30 06:56:46;;;;;;;128.02;44.42;;;;;;;5.95;100.00;98109.88;4967040;28;20027;-51
2022/03/30 06:59:13;;;;;;;110.50;39.42;;;;;;;5.80;100.00;98108.53;4967250;28;20428;-53
2022/03/30 07:01:39;;;;;;;111.35;39.58;;;;;;;5.71;100.00;98104.63;4965503;28;20027;-50
2022/03/30 07:04:04;;;;;;;143.85;45.22;;;;;;;5.82;100.00;98114.41;4967555;28;20047;-52
2022/03/30 07:06:30;;;;;;;111.75;40.70;;;;;;;5.68;100.00;98099.00;4966669;28;20034;-52
2022/03/30 07:11:39;;;;;;;112.68;38.58;;;;;;;5.67;100.00;98106.16;4960193;28;20038;-50
2022/03/30 07:14:05;;;;;;;124.47;40.45;;;;;;;5.69;100.00;98100.59;4962701;28;20421;-54
2022/03/30 07:16:30;;;;;;;118.28;40.13;;;;;;;5.71;100.00;98107.28;4954871;28;20078;-53
2022/03/30 07:18:56;;;;;;;128.10;41.70;;;;;;;5.67;100.00;98098.19;4964049;28;20027;-52
2022/03/30 07:21:21;;;;;;;128.60;41.72;;;;;;;5.83;100.00;98097.41;4961600;28;20054;-53
2022/03/30 07:23:46;;;;;;;124.45;41.15;;;;;;;5.85;100.00;98091.84;4967477;28;20030;-54
2022/03/30 07:26:12;;;;;;;233.18;64.00;;;;;;;6.01;100.00;98098.25;4964232;28;20033;-53
2022/03/30 07:28:38;;;;;;;127.10;41.50;;;;;;;5.89;100.00;98095.66;4959603;28;20101;-54
2022/03/30 07:31:03;;;;;;;110.55;37.72;;;;;;;5.86;100.00;98090.00;4956571;28;20054;-51
2022/03/30 07:33:29;;;;;;;133.95;45.60;;;;;;;5.90;100.00;98085.81;4962355;28;20074;-52
2022/03/30 07:35:55;;;;;;;136.15;42.88;;;;;;;5.94;100.00;98089.63;4957807;28;20505;-50
2022/03/30 07:38:20;;;;;;;120.32;40.40;;;;;;;6.00;100.00;98091.34;4965663;28;20055;-52
2022/03/30 07:40:47;;;;;;;135.98;43.95;;;;;;;6.05;100.00;98089.56;4960630;28;20477;-53
2022/03/30 07:43:12;;;;;;;139.75;43.50;;;;;;;6.16;100.00;98085.22;4963468;28;20059;-53
2022/03/30 07:45:38;;;;;;;125.95;40.28;;;;;;;6.27;99.41;98086.19;4962239;28;20025;-54
2022/03/30 07:48:05;;;;;;;125.32;43.08;;;;;;;6.62;97.99;98088.59;4948929;28;20504;-53
2022/03/30 07:50:30;;;;;;;114.97;41.85;;;;;;;6.64;97.33;98081.16;4959958;28;20495;-51
2022/03/30 07:52:55;;;;;;;121.43;42.85;;;;;;;6.82;95.15;98088.06;4967406;28;20027;-54
2022/03/30 07:55:21;;;;;;;108.80;38.80;;;;;;;7.05;94.53;98086.22;4960996;28;20027;-54
2022/03/30 07:57:46;;;;;;;107.40;39.35;;;;;;;7.14;93.23;98084.75;4959697;28;20469;-53
2022/03/30 08:00:17;;;;;;;113.50;40.55;;;;;;;7.33;91.42;98087.88;4966012;28;20034;-52
2022/03/30 08:02:44;;;;;;;103.95;38.20;;;;;;;7.49;90.79;98084.34;4955273;28;20027;-54
2022/03/30 08:05:11;;;;;;;112.22;39.95;;;;;;;7.68;91.46;98089.34;4966112;28;20034;-53
2022/03/30 08:07:37;;;;;;;110.10;41.63;;;;;;;7.65;91.43;98089.84;4969500;28;20027;-53
2022/03/30 08:10:03;;;;;;;123.15;42.65;;;;;;;7.42;90.84;98097.06;4965687;28;20127;-54
2022/03/30 08:12:28;;;;;;;102.40;38.45;;;;;;;7.16;90.70;98103.13;4960781;28;20020;-53
2022/03/30 08:14:54;;;;;;;114.95;38.58;;;;;;;6.87;92.54;98096.13;4962427;28;20027;-50
2022/03/30 08:17:20;;;;;;;105.60;37.85;;;;;;;6.94;93.63;98095.97;4961620;28;20026;-51
2022/03/30 08:19:45;;;;;;;97.13;37.28;;;;;;;7.06;92.93;98096.66;4958225;28;20466;-54
2022/03/30 08:22:25;;;;;;;102.13;39.20;;;;;;;7.12;91.91;98087.66;4966644;28;20051;-52
2022/03/30 08:24:52;;;;;;;105.63;39.40;;;;;;;7.21;92.01;98084.53;4963895;28;20027;-53
2022/03/30 08:27:21;;;;;;;108.43;39.22;;;;;;;7.47;91.38;98085.66;4965028;28;20043;-53
2022/03/30 08:29:47;;;;;;;104.78;39.83;;;;;;;7.31;89.97;98085.50;4964910;28;20118;-52
2022/03/30 08:32:13;;;;;;;96.47;37.35;;;;;;;6.74;92.10;98095.66;4968325;28;20531;-52
2022/03/30 08:34:39;;;;;;;97.10;38.08;;;;;;;7.50;91.71;98085.94;4954303;28;20395;-51
2022/03/30 08:37:05;;;;;;;95.85;36.80;;;;;;;7.63;87.67;98078.63;4967835;28;20031;-53
2022/03/30 08:39:31;;;;;;;95.05;37.90;;;;;;;7.39;87.08;98078.09;4968684;28;20038;-52
2022/03/30 08:41:56;;;;;;;97.00;37.97;;;;;;;7.95;88.06;98084.81;4969129;28;20082;-52
2022/03/30 08:44:22;;;;;;;89.05;35.88;;;;;;;8.44;84.10;98083.91;4969565;28;20397;-51
2022/03/30 08:46:47;;;;;;;98.93;38.42;;;;;;;8.16;86.06;98076.97;4967268;28;20019;-51
2022/03/30 08:49:14;;;;;;;100.40;36.60;;;;;;;8.50;84.92;98079.41;4959580;28;20054;-53
2022/03/30 08:51:40;;;;;;;110.50;39.00;;;;;;;8.06;87.71;98072.34;4968794;28;20042;-54
2022/03/30 08:54:06;;;;;;;99.25;37.78;;;;;;;7.82;86.69;98084.41;4962438;28;20026;-53
2022/03/30 08:56:31;;;;;;;97.35;37.35;;;;;;;8.00;88.19;98087.50;4967168;28;20045;-53
2022/03/30 08:59:04;;;;;;;85.63;33.88;;;;;;;7.90;85.87;98087.41;4968843;28;20130;-53
2022/03/30 09:01:32;;;;;;;94.55;37.03;;;;;;;7.71;87.70;98080.81;4965678;28;20042;-50
2022/03/30 09:03:58;;;;;;;102.93;37.47;;;;;;;7.75;87.84;98087.28;4969280;28;20413;-51
2022/03/30 09:06:39;;;;;;;106.40;38.58;;;;;;;7.56;89.64;98086.81;4968738;28;20038;-52
2022/03/30 09:09:06;;;;;;;93.22;36.22;;;;;;;7.71;89.42;98089.66;4959470;28;20045;-53
2022/03/30 09:11:58;;;;;;;94.43;36.70;;;;;;;7.71;88.28;98084.31;4961093;28;20039;-51
2022/03/30 09:14:25;;;;;;;100.72;36.80;;;;;;;7.99;87.42;98087.78;4966463;28;20046;-54
2022/03/30 09:16:59;;;;;;;99.80;36.67;;;;;;;7.95;87.71;98084.81;4967279;28;20069;-53
2022/03/30 09:19:24;;;;;;;89.63;33.95;;;;;;;7.80;86.96;98090.00;4960770;28;20031;-53
2022/03/30 09:21:52;;;;;;;91.28;34.60;;;;;;;8.18;89.13;98083.66;4960637;28;20046;-52
2022/03/30 09:24:22;;;;;;;95.65;35.53;;;;;;;8.49;86.83;98083.13;4956283;28;20509;-54
2022/03/30 09:26:48;;;;;;;94.50;36.73;;;;;;;8.43;85.97;98083.06;4966738;28;20024;-54
2022/03/30 09:29:13;;;;;;;89.20;35.78;;;;;;;8.46;86.70;98076.41;4963221;28;20072;-51
2022/03/30 09:31:41;;;;;;;78.75;34.17;;;;;;;8.56;84.28;98078.34;4964005;28;20031;-51
2022/03/30 09:34:07;;;;;;;76.95;31.13;;;;;;;8.28;83.81;98080.25;4963257;28;20110;-51
2022/03/30 09:36:34;;;;;;;81.65;30.83;;;;;;;8.03;80.81;98070.19;4960979;28;20499;-52
2022/03/30 09:38:59;;;;;;;83.95;31.15;;;;;;;8.45;82.17;98071.34;4960837;28;20067;-50
2022/03/30 09:41:25;;;;;;;74.78;32.67;;;;;;;8.48;79.42;98070.84;4966712;28;20457;-51
2022/03/30 09:44:02;;;;;;;78.53;29.35;;;;;;;8.49;79.85;98064.44;4952470;28;20027;-51
2022/03/30 09:46:27;;;;;;;63.17;24.45;;;;;;;8.34;78.27;98073.91;4948535;28;20027;-50
2022/03/30 09:48:53;;;;;;;72.25;29.65;;;;;;;8.55;80.44;98068.75;4968101;28;20034;-53
2022/03/30 09:51:19;;;;;;;76.00;29.65;;;;;;;8.50;79.89;98063.38;4966210;28;20039;-52
2022/03/30 09:53:46;;;;;;;68.93;28.17;;;;;;;8.89;78.52;98063.06;4963398;28;20031;-56
2022/03/30 09:56:22;;;;;;;63.53;28.02;;;;;;;9.36;75.92;98056.81;4962531;28;20622;-51
2022/03/30 09:58:48;;;;;;;64.47;28.88;;;;;;;9.49;75.33;98051.00;4968275;28;20066;-53
2022/03/30 10:01:21;;;;;;;61.78;26.08;;;;;;;9.04;73.69;98063.13;4966940;28;20042;-51
2022/03/30 10:03:54;;;;;;;58.72;26.45;;;;;;;10.00;71.16;98061.75;4961472;28;20445;-51
2022/03/30 10:06:24;;;;;;;62.00;27.98;;;;;;;10.38;69.20;98058.84;4963776;28;20066;-54
2022/03/30 10:08:50;;;;;;;61.97;26.60;;;;;;;10.85;69.78;98063.06;4968592;28;20030;-53
2022/03/30 10:11:16;;;;;;;56.40;25.67;;;;;;;11.40;66.14;98058.53;4967970;28;20039;-52
2022/03/30 10:13:43;;;;;;;47.45;23.35;;;;;;;11.07;65.91;98050.09;4968007;28;20188;-51
2022/03/30 10:16:08;;;;;;;47.97;21.92;;;;;;;10.33;63.46;98048.94;4961856;28;20038;-53
2022/03/30 10:18:35;;;;;;;51.47;21.58;;;;;;;9.51;65.25;98054.22;4961069;28;20516;-54
2022/03/30 10:21:07;;;;;;;53.92;23.38;;;;;;;9.78;65.18;98045.16;4956539;28;20383;-54
2022/03/30 10:23:45;;;;;;;58.83;24.30;;;;;;;10.37;64.88;98041.97;4963475;28;20114;-54
2022/03/30 10:26:32;;;;;;;57.28;24.98;;;;;;;10.15;63.36;98044.91;4967460;28;20034;-51
2022/03/30 10:29:00;;;;;;;51.67;21.80;;;;;;;10.86;61.28;98037.84;4955763;28;20061;-51
2022/03/30 10:31:26;;;;;;;58.20;25.52;;;;;;;11.85;65.27;98044.03;4957960;28;20397;-54
2022/03/30 10:33:52;;;;;;;60.15;27.08;;;;;;;12.56;65.92;98039.19;4959697;28;20046;-50
2022/03/30 10:36:28;;;;;;;65.40;28.42;;;;;;;12.59;64.56;98044.00;4961781;28;20500;-53
2022/03/30 10:39:24;;;;;;;61.72;27.17;;;;;;;11.82;66.89;98039.22;4962919;28;20477;-49
2022/03/30 10:41:52;;;;;;;56.10;24.30;;;;;;;12.01;65.80;98042.09;4961532;28;20027;-52
2022/03/30 10:44:38;;;;;;;57.75;25.02;;;;;;;11.98;64.38;98031.09;4953977;28;20535;-52
2022/03/30 10:47:10;;;;;;;57.08;25.02;;;;;;;11.08;65.55;98032.13;4955266;28;20035;-51
2022/03/30 10:49:42;;;;;;;53.25;23.52;;;;;;;10.67;62.66;98034.97;4968340;28;20097;-49
2022/03/30 10:52:31;;;;;;;49.78;24.05;;;;;;;11.80;61.02;98027.16;4959999;28;20034;-51
2022/03/30 10:55:12;;;;;;;59.70;25.10;;;;;;;11.11;62.31;98020.88;4966857;28;20031;-52
2022/03/30 10:58:01;;;;;;;48.47;23.50;;;;;;;12.07;61.33;98014.09;4959214;28;20110;-50
2022/03/30 11:00:31;;;;;;;46.55;24.02;;;;;;;12.90;59.54;98008.69;4956348;28;20070;-52
2022/03/30 11:03:06;;;;;;;;;;;;;;;11.76;57.18;98008.16;4964434;28;20039;-52
2022/03/30 11:05:31;;;;;;;52.38;23.48;;;;;;;11.29;59.91;97998.78;4961721;28;19922;-49
2022/03/30 11:07:57;;;;;;;48.65;22.85;;;;;;;12.00;57.09;97999.38;4967888;28;20033;-50
2022/03/30 11:10:29;;;;;;;50.90;21.38;;;;;;;12.02;59.65;97998.03;4965655;28;20030;-51
2022/03/30 11:12:56;;;;;;;47.70;21.70;;;;;;;12.63;54.54;97993.97;4967096;28;20039;-52
2022/03/30 11:15:22;;;;;;;52.13;22.60;;;;;;;11.84;56.01;97994.13;4959582;28;20085;-53
2022/03/30 11:17:47;;;;;;;48.30;23.10;;;;;;;12.52;52.82;97987.88;4963812;28;20414;-51
2022/03/30 11:20:14;;;;;;;47.00;22.08;;;;;;;13.76;52.30;97981.72;4961461;28;20554;-51
2022/03/30 11:22:44;;;;;;;41.47;19.35;;;;;;;12.14;54.99;97986.91;4966798;28;20050;-52